sensor_id;sensor_type;location;lat;lon;timestamp;temperature;humidity
50548;DHT22;38013;48.810;8.818;2022-08-20T00:00:35;22.40;63.00
50548;DHT22;38013;48.810;8.818;2022-08-20T00:03:07;22.40;63.20
50548;DHT22;38013;48.810;8.818;2022-08-20T00:05:46;22.30;63.30
50548;DHT22;38013;48.810;8.818;2022-08-20T00:08:18;22.30;63.10
50548;DHT22;38013;48.810;8.818;2022-08-20T00:10:46;22.30;63.10
50548;DHT22;38013;48.810;8.818;2022-08-20T00:13:17;22.20;63.30
50548;DHT22;38013;48.810;8.818;2022-08-20T00:15:46;22.30;63.80
50548;DHT22;38013;48.810;8.818;2022-08-20T00:18:12;22.30;63.70
50548;DHT22;38013;48.810;8.818;2022-08-20T00:20:41;22.20;63.70
50548;DHT22;38013;48.810;8.818;2022-08-20T00:23:10;22.20;63.90
50548;DHT22;38013;48.810;8.818;2022-08-20T00:25:36;22.20;64.00
50548;DHT22;38013;48.810;8.818;2022-08-20T00:28:03;22.20;64.10
50548;DHT22;38013;48.810;8.818;2022-08-20T00:30:32;22.10;64.00
50548;DHT22;38013;48.810;8.818;2022-08-20T00:33:07;22.20;64.30
50548;DHT22;38013;48.810;8.818;2022-08-20T00:35:38;22.10;64.30
50548;DHT22;38013;48.810;8.818;2022-08-20T00:38:06;22.10;64.30
50548;DHT22;38013;48.810;8.818;2022-08-20T00:40:40;22.10;64.30
50548;DHT22;38013;48.810;8.818;2022-08-20T00:43:30;22.10;64.50
50548;DHT22;38013;48.810;8.818;2022-08-20T00:46:00;22.00;64.90
50548;DHT22;38013;48.810;8.818;2022-08-20T00:48:32;22.10;64.50
50548;DHT22;38013;48.810;8.818;2022-08-20T00:51:07;22.00;64.70
50548;DHT22;38013;48.810;8.818;2022-08-20T00:53:39;22.00;64.40
50548;DHT22;38013;48.810;8.818;2022-08-20T00:56:07;22.10;64.20
50548;DHT22;38013;48.810;8.818;2022-08-20T00:58:35;22.00;64.60
50548;DHT22;38013;48.810;8.818;2022-08-20T01:01:03;22.00;64.80
50548;DHT22;38013;48.810;8.818;2022-08-20T01:03:30;22.00;65.00
50548;DHT22;38013;48.810;8.818;2022-08-20T01:05:56;22.00;65.00
50548;DHT22;38013;48.810;8.818;2022-08-20T01:08:23;22.00;65.10
50548;DHT22;38013;48.810;8.818;2022-08-20T01:10:51;22.00;65.20
50548;DHT22;38013;48.810;8.818;2022-08-20T01:13:24;22.00;65.30
50548;DHT22;38013;48.810;8.818;2022-08-20T01:15:52;22.00;65.40
50548;DHT22;38013;48.810;8.818;2022-08-20T01:18:23;22.00;65.50
50548;DHT22;38013;48.810;8.818;2022-08-20T01:21:02;22.00;65.60
50548;DHT22;38013;48.810;8.818;2022-08-20T01:24:02;22.00;66.00
50548;DHT22;38013;48.810;8.818;2022-08-20T01:26:42;22.00;66.00
50548;DHT22;38013;48.810;8.818;2022-08-20T01:29:15;22.00;66.00
50548;DHT22;38013;48.810;8.818;2022-08-20T01:31:43;22.00;65.80
50548;DHT22;38013;48.810;8.818;2022-08-20T01:34:15;22.00;65.60
50548;DHT22;38013;48.810;8.818;2022-08-20T01:36:43;22.00;65.70
50548;DHT22;38013;48.810;8.818;2022-08-20T01:39:34;22.00;65.50
50548;DHT22;38013;48.810;8.818;2022-08-20T01:42:10;22.00;65.70
50548;DHT22;38013;48.810;8.818;2022-08-20T01:44:41;22.00;65.90
50548;DHT22;38013;48.810;8.818;2022-08-20T01:49:55;22.00;65.60
50548;DHT22;38013;48.810;8.818;2022-08-20T01:52:38;22.00;65.60
50548;DHT22;38013;48.810;8.818;2022-08-20T01:55:08;22.00;66.00
50548;DHT22;38013;48.810;8.818;2022-08-20T01:57:35;21.90;65.60
50548;DHT22;38013;48.810;8.818;2022-08-20T02:00:05;21.90;65.70
50548;DHT22;38013;48.810;8.818;2022-08-20T02:02:37;21.90;66.00
50548;DHT22;38013;48.810;8.818;2022-08-20T02:05:04;21.90;65.90
50548;DHT22;38013;48.810;8.818;2022-08-20T02:07:30;21.90;66.00
50548;DHT22;38013;48.810;8.818;2022-08-20T02:09:57;21.90;66.00
50548;DHT22;38013;48.810;8.818;2022-08-20T02:12:23;21.80;66.10
50548;DHT22;38013;48.810;8.818;2022-08-20T02:14:51;21.80;66.20
50548;DHT22;38013;48.810;8.818;2022-08-20T02:17:21;21.80;66.40
50548;DHT22;38013;48.810;8.818;2022-08-20T02:19:51;21.80;66.40
50548;DHT22;38013;48.810;8.818;2022-08-20T02:22:51;21.80;66.50
50548;DHT22;38013;48.810;8.818;2022-08-20T02:25:22;21.80;66.90
50548;DHT22;38013;48.810;8.818;2022-08-20T02:27:51;21.80;66.70
50548;DHT22;38013;48.810;8.818;2022-08-20T02:30:31;21.80;66.60
50548;DHT22;38013;48.810;8.818;2022-08-20T02:33:01;21.70;67.10
50548;DHT22;38013;48.810;8.818;2022-08-20T02:35:28;21.70;66.80
50548;DHT22;38013;48.810;8.818;2022-08-20T02:37:55;21.70;66.80
50548;DHT22;38013;48.810;8.818;2022-08-20T02:40:23;21.70;66.90
50548;DHT22;38013;48.810;8.818;2022-08-20T02:42:51;21.70;66.90
50548;DHT22;38013;48.810;8.818;2022-08-20T02:45:18;21.70;66.90
50548;DHT22;38013;48.810;8.818;2022-08-20T02:47:45;21.70;67.20
50548;DHT22;38013;48.810;8.818;2022-08-20T02:50:13;21.70;67.30
50548;DHT22;38013;48.810;8.818;2022-08-20T02:52:42;21.60;67.40
50548;DHT22;38013;48.810;8.818;2022-08-20T02:55:09;21.60;67.40
50548;DHT22;38013;48.810;8.818;2022-08-20T02:57:36;21.60;67.60
50548;DHT22;38013;48.810;8.818;2022-08-20T03:00:06;21.60;67.60
50548;DHT22;38013;48.810;8.818;2022-08-20T03:02:35;21.60;67.80
50548;DHT22;38013;48.810;8.818;2022-08-20T03:05:00;21.60;67.80
50548;DHT22;38013;48.810;8.818;2022-08-20T03:07:26;21.60;67.80
50548;DHT22;38013;48.810;8.818;2022-08-20T03:09:53;21.60;67.80
50548;DHT22;38013;48.810;8.818;2022-08-20T03:12:19;21.60;67.90
50548;DHT22;38013;48.810;8.818;2022-08-20T03:14:45;21.60;68.10
50548;DHT22;38013;48.810;8.818;2022-08-20T03:17:10;21.60;68.10
50548;DHT22;38013;48.810;8.818;2022-08-20T03:19:36;21.60;68.20
50548;DHT22;38013;48.810;8.818;2022-08-20T03:22:02;21.60;68.20
50548;DHT22;38013;48.810;8.818;2022-08-20T03:24:28;21.60;68.20
50548;DHT22;38013;48.810;8.818;2022-08-20T03:26:54;21.60;68.20
50548;DHT22;38013;48.810;8.818;2022-08-20T03:29:19;21.60;68.10
50548;DHT22;38013;48.810;8.818;2022-08-20T03:31:45;21.60;68.20
50548;DHT22;38013;48.810;8.818;2022-08-20T03:34:11;21.70;68.30
50548;DHT22;38013;48.810;8.818;2022-08-20T03:36:37;21.70;68.30
50548;DHT22;38013;48.810;8.818;2022-08-20T03:39:06;21.70;68.40
50548;DHT22;38013;48.810;8.818;2022-08-20T03:41:35;21.70;68.70
50548;DHT22;38013;48.810;8.818;2022-08-20T03:44:01;21.70;68.50
50548;DHT22;38013;48.810;8.818;2022-08-20T03:46:27;21.70;68.40
50548;DHT22;38013;48.810;8.818;2022-08-20T03:48:53;21.70;68.60
50548;DHT22;38013;48.810;8.818;2022-08-20T03:51:19;21.70;68.60
50548;DHT22;38013;48.810;8.818;2022-08-20T03:53:45;21.60;68.50
50548;DHT22;38013;48.810;8.818;2022-08-20T03:56:12;21.70;68.70
50548;DHT22;38013;48.810;8.818;2022-08-20T03:58:37;21.60;68.60
50548;DHT22;38013;48.810;8.818;2022-08-20T04:01:05;21.70;68.70
50548;DHT22;38013;48.810;8.818;2022-08-20T04:03:31;21.70;68.90
50548;DHT22;38013;48.810;8.818;2022-08-20T04:05:57;21.60;68.70
50548;DHT22;38013;48.810;8.818;2022-08-20T04:08:25;21.70;68.90
50548;DHT22;38013;48.810;8.818;2022-08-20T04:10:54;21.60;69.60
50548;DHT22;38013;48.810;8.818;2022-08-20T04:13:22;21.70;69.00
50548;DHT22;38013;48.810;8.818;2022-08-20T04:15:49;21.70;69.00
50548;DHT22;38013;48.810;8.818;2022-08-20T04:18:17;21.70;69.00
50548;DHT22;38013;48.810;8.818;2022-08-20T04:20:48;21.60;68.90
50548;DHT22;38013;48.810;8.818;2022-08-20T04:23:15;21.70;69.00
50548;DHT22;38013;48.810;8.818;2022-08-20T04:25:42;21.60;69.00
50548;DHT22;38013;48.810;8.818;2022-08-20T04:28:13;21.70;69.10
50548;DHT22;38013;48.810;8.818;2022-08-20T04:30:50;21.70;69.30
50548;DHT22;38013;48.810;8.818;2022-08-20T04:33:17;21.70;69.10
50548;DHT22;38013;48.810;8.818;2022-08-20T04:35:44;21.70;69.20
50548;DHT22;38013;48.810;8.818;2022-08-20T04:38:13;21.70;69.20
50548;DHT22;38013;48.810;8.818;2022-08-20T04:40:41;21.70;69.40
50548;DHT22;38013;48.810;8.818;2022-08-20T04:43:20;21.70;69.20
50548;DHT22;38013;48.810;8.818;2022-08-20T04:45:52;21.60;69.10
50548;DHT22;38013;48.810;8.818;2022-08-20T04:48:19;21.70;69.10
50548;DHT22;38013;48.810;8.818;2022-08-20T04:50:48;21.60;69.10
50548;DHT22;38013;48.810;8.818;2022-08-20T04:53:17;21.70;69.20
50548;DHT22;38013;48.810;8.818;2022-08-20T04:55:44;21.70;69.30
50548;DHT22;38013;48.810;8.818;2022-08-20T04:58:13;21.70;69.30
50548;DHT22;38013;48.810;8.818;2022-08-20T05:00:54;21.70;69.30
50548;DHT22;38013;48.810;8.818;2022-08-20T05:03:25;21.70;69.50
50548;DHT22;38013;48.810;8.818;2022-08-20T05:05:51;21.70;69.20
50548;DHT22;38013;48.810;8.818;2022-08-20T05:08:19;21.70;69.30
50548;DHT22;38013;48.810;8.818;2022-08-20T05:10:47;21.70;69.30
50548;DHT22;38013;48.810;8.818;2022-08-20T05:13:14;21.80;69.30
50548;DHT22;38013;48.810;8.818;2022-08-20T05:15:40;21.80;69.40
50548;DHT22;38013;48.810;8.818;2022-08-20T05:18:07;21.80;69.40
50548;DHT22;38013;48.810;8.818;2022-08-20T05:20:35;21.80;69.50
50548;DHT22;38013;48.810;8.818;2022-08-20T05:23:05;21.80;69.60
50548;DHT22;38013;48.810;8.818;2022-08-20T05:25:33;21.80;69.50
50548;DHT22;38013;48.810;8.818;2022-08-20T05:28:05;21.90;69.60
50548;DHT22;38013;48.810;8.818;2022-08-20T05:30:41;21.90;69.80
50548;DHT22;38013;48.810;8.818;2022-08-20T05:33:09;21.90;69.70
50548;DHT22;38013;48.810;8.818;2022-08-20T05:35:37;22.00;69.70
50548;DHT22;38013;48.810;8.818;2022-08-20T05:38:04;22.00;69.60
50548;DHT22;38013;48.810;8.818;2022-08-20T05:40:31;22.00;69.50
50548;DHT22;38013;48.810;8.818;2022-08-20T05:42:57;22.10;69.40
50548;DHT22;38013;48.810;8.818;2022-08-20T05:45:23;22.10;69.30
50548;DHT22;38013;48.810;8.818;2022-08-20T05:47:49;22.10;69.30
50548;DHT22;38013;48.810;8.818;2022-08-20T05:50:16;22.20;69.20
50548;DHT22;38013;48.810;8.818;2022-08-20T05:52:43;22.20;69.20
50548;DHT22;38013;48.810;8.818;2022-08-20T05:55:10;22.20;69.00
50548;DHT22;38013;48.810;8.818;2022-08-20T05:57:40;22.20;68.90
50548;DHT22;38013;48.810;8.818;2022-08-20T06:00:10;22.20;68.80
50548;DHT22;38013;48.810;8.818;2022-08-20T06:02:37;22.30;68.80
50548;DHT22;38013;48.810;8.818;2022-08-20T06:05:22;22.30;68.80
50548;DHT22;38013;48.810;8.818;2022-08-20T06:07:48;22.30;69.00
50548;DHT22;38013;48.810;8.818;2022-08-20T06:10:16;22.30;69.10
50548;DHT22;38013;48.810;8.818;2022-08-20T06:12:41;22.30;69.00
50548;DHT22;38013;48.810;8.818;2022-08-20T06:15:10;22.30;69.00
50548;DHT22;38013;48.810;8.818;2022-08-20T06:17:37;22.40;68.90
50548;DHT22;38013;48.810;8.818;2022-08-20T06:20:05;22.40;68.80
50548;DHT22;38013;48.810;8.818;2022-08-20T06:22:32;22.50;69.00
50548;DHT22;38013;48.810;8.818;2022-08-20T06:24:59;22.50;68.80
50548;DHT22;38013;48.810;8.818;2022-08-20T06:27:25;22.50;68.60
50548;DHT22;38013;48.810;8.818;2022-08-20T06:29:51;22.60;68.60
50548;DHT22;38013;48.810;8.818;2022-08-20T06:32:19;22.60;68.40
50548;DHT22;38013;48.810;8.818;2022-08-20T06:34:47;22.60;68.20
50548;DHT22;38013;48.810;8.818;2022-08-20T06:37:15;22.60;68.00
50548;DHT22;38013;48.810;8.818;2022-08-20T06:39:45;22.60;68.10
50548;DHT22;38013;48.810;8.818;2022-08-20T06:42:11;22.60;68.00
50548;DHT22;38013;48.810;8.818;2022-08-20T06:44:37;22.60;68.10
50548;DHT22;38013;48.810;8.818;2022-08-20T06:47:04;22.60;68.10
50548;DHT22;38013;48.810;8.818;2022-08-20T06:49:33;22.70;68.10
50548;DHT22;38013;48.810;8.818;2022-08-20T06:52:01;22.70;68.10
50548;DHT22;38013;48.810;8.818;2022-08-20T06:54:28;22.70;68.00
50548;DHT22;38013;48.810;8.818;2022-08-20T06:56:54;22.70;68.00
50548;DHT22;38013;48.810;8.818;2022-08-20T06:59:20;22.70;68.20
50548;DHT22;38013;48.810;8.818;2022-08-20T07:01:46;22.70;68.10
50548;DHT22;38013;48.810;8.818;2022-08-20T07:04:14;22.80;68.00
50548;DHT22;38013;48.810;8.818;2022-08-20T07:06:41;22.80;67.80
50548;DHT22;38013;48.810;8.818;2022-08-20T07:09:08;22.90;67.70
50548;DHT22;38013;48.810;8.818;2022-08-20T07:11:34;22.80;67.50
50548;DHT22;38013;48.810;8.818;2022-08-20T07:14:00;22.90;67.50
50548;DHT22;38013;48.810;8.818;2022-08-20T07:16:30;22.90;67.50
50548;DHT22;38013;48.810;8.818;2022-08-20T07:18:56;22.90;67.40
50548;DHT22;38013;48.810;8.818;2022-08-20T07:21:22;22.90;67.30
50548;DHT22;38013;48.810;8.818;2022-08-20T07:23:48;23.00;67.40
50548;DHT22;38013;48.810;8.818;2022-08-20T07:26:14;23.00;67.30
50548;DHT22;38013;48.810;8.818;2022-08-20T07:28:40;23.10;67.50
50548;DHT22;38013;48.810;8.818;2022-08-20T07:31:06;23.10;67.30
50548;DHT22;38013;48.810;8.818;2022-08-20T07:33:51;23.20;67.20
50548;DHT22;38013;48.810;8.818;2022-08-20T07:36:17;23.30;67.20
50548;DHT22;38013;48.810;8.818;2022-08-20T07:38:43;23.40;66.90
50548;DHT22;38013;48.810;8.818;2022-08-20T07:41:13;23.40;66.40
50548;DHT22;38013;48.810;8.818;2022-08-20T07:43:40;23.50;66.10
50548;DHT22;38013;48.810;8.818;2022-08-20T07:46:07;23.50;66.10
50548;DHT22;38013;48.810;8.818;2022-08-20T07:48:36;23.50;65.70
50548;DHT22;38013;48.810;8.818;2022-08-20T07:51:07;23.70;65.40
50548;DHT22;38013;48.810;8.818;2022-08-20T07:53:35;23.70;65.30
50548;DHT22;38013;48.810;8.818;2022-08-20T07:56:06;23.70;65.10
50548;DHT22;38013;48.810;8.818;2022-08-20T07:58:34;23.70;64.90
50548;DHT22;38013;48.810;8.818;2022-08-20T08:01:00;23.80;64.90
50548;DHT22;38013;48.810;8.818;2022-08-20T08:03:26;23.70;64.60
50548;DHT22;38013;48.810;8.818;2022-08-20T08:05:53;23.70;64.60
50548;DHT22;38013;48.810;8.818;2022-08-20T08:08:23;23.80;64.60
50548;DHT22;38013;48.810;8.818;2022-08-20T08:10:54;23.80;64.50
50548;DHT22;38013;48.810;8.818;2022-08-20T08:13:28;23.80;64.50
50548;DHT22;38013;48.810;8.818;2022-08-20T08:15:58;23.80;64.40
50548;DHT22;38013;48.810;8.818;2022-08-20T08:18:30;23.80;64.30
50548;DHT22;38013;48.810;8.818;2022-08-20T08:21:01;23.80;64.20
50548;DHT22;38013;48.810;8.818;2022-08-20T08:23:26;23.80;64.20
50548;DHT22;38013;48.810;8.818;2022-08-20T08:25:53;23.80;64.30
50548;DHT22;38013;48.810;8.818;2022-08-20T08:28:19;23.80;64.30
50548;DHT22;38013;48.810;8.818;2022-08-20T08:30:46;23.80;64.20
50548;DHT22;38013;48.810;8.818;2022-08-20T08:33:20;23.80;64.30
50548;DHT22;38013;48.810;8.818;2022-08-20T08:38:24;23.90;64.00
50548;DHT22;38013;48.810;8.818;2022-08-20T08:40:55;23.90;64.30
50548;DHT22;38013;48.810;8.818;2022-08-20T08:43:24;24.00;64.10
50548;DHT22;38013;48.810;8.818;2022-08-20T08:45:58;24.00;63.90
50548;DHT22;38013;48.810;8.818;2022-08-20T08:48:35;24.10;63.70
50548;DHT22;38013;48.810;8.818;2022-08-20T08:51:05;24.10;63.60
50548;DHT22;38013;48.810;8.818;2022-08-20T08:53:40;24.10;63.60
50548;DHT22;38013;48.810;8.818;2022-08-20T08:56:11;24.10;63.60
50548;DHT22;38013;48.810;8.818;2022-08-20T08:58:39;24.10;63.50
50548;DHT22;38013;48.810;8.818;2022-08-20T09:01:16;24.20;63.10
50548;DHT22;38013;48.810;8.818;2022-08-20T09:03:45;24.20;62.80
50548;DHT22;38013;48.810;8.818;2022-08-20T09:06:17;24.20;63.00
50548;DHT22;38013;48.810;8.818;2022-08-20T09:08:48;24.20;63.00
50548;DHT22;38013;48.810;8.818;2022-08-20T09:11:18;24.20;63.10
50548;DHT22;38013;48.810;8.818;2022-08-20T09:13:45;24.20;62.80
50548;DHT22;38013;48.810;8.818;2022-08-20T09:16:12;24.20;62.90
50548;DHT22;38013;48.810;8.818;2022-08-20T09:18:38;24.20;62.70
50548;DHT22;38013;48.810;8.818;2022-08-20T09:21:05;24.20;62.70
50548;DHT22;38013;48.810;8.818;2022-08-20T09:23:32;24.20;63.10
50548;DHT22;38013;48.810;8.818;2022-08-20T09:25:58;24.30;63.20
50548;DHT22;38013;48.810;8.818;2022-08-20T09:28:24;24.30;63.50
50548;DHT22;38013;48.810;8.818;2022-08-20T09:30:50;24.30;62.90
50548;DHT22;38013;48.810;8.818;2022-08-20T09:33:16;24.30;62.90
50548;DHT22;38013;48.810;8.818;2022-08-20T09:35:42;24.30;63.00
50548;DHT22;38013;48.810;8.818;2022-08-20T09:38:10;24.30;64.00
50548;DHT22;38013;48.810;8.818;2022-08-20T09:40:36;24.20;64.30
50548;DHT22;38013;48.810;8.818;2022-08-20T09:43:04;24.10;64.80
50548;DHT22;38013;48.810;8.818;2022-08-20T09:45:31;24.00;65.10
50548;DHT22;38013;48.810;8.818;2022-08-20T09:47:57;23.90;65.20
50548;DHT22;38013;48.810;8.818;2022-08-20T09:50:29;23.80;65.30
50548;DHT22;38013;48.810;8.818;2022-08-20T09:52:58;23.60;66.70
50548;DHT22;38013;48.810;8.818;2022-08-20T09:55:37;23.40;66.10
50548;DHT22;38013;48.810;8.818;2022-08-20T09:58:21;23.20;67.10
50548;DHT22;38013;48.810;8.818;2022-08-20T10:00:48;23.00;68.50
50548;DHT22;38013;48.810;8.818;2022-08-20T10:03:14;22.90;68.20
50548;DHT22;38013;48.810;8.818;2022-08-20T10:05:40;22.70;68.80
50548;DHT22;38013;48.810;8.818;2022-08-20T10:08:07;22.60;69.60
50548;DHT22;38013;48.810;8.818;2022-08-20T10:10:33;22.50;70.10
50548;DHT22;38013;48.810;8.818;2022-08-20T10:12:59;22.50;70.30
50548;DHT22;38013;48.810;8.818;2022-08-20T10:15:27;22.40;70.40
50548;DHT22;38013;48.810;8.818;2022-08-20T10:17:53;22.40;70.70
50548;DHT22;38013;48.810;8.818;2022-08-20T10:20:19;22.40;71.10
50548;DHT22;38013;48.810;8.818;2022-08-20T10:22:45;22.40;71.70
50548;DHT22;38013;48.810;8.818;2022-08-20T10:25:11;22.40;72.00
50548;DHT22;38013;48.810;8.818;2022-08-20T10:27:37;22.40;71.70
50548;DHT22;38013;48.810;8.818;2022-08-20T10:30:05;22.50;71.90
50548;DHT22;38013;48.810;8.818;2022-08-20T10:32:31;22.50;72.40
50548;DHT22;38013;48.810;8.818;2022-08-20T10:34:57;22.50;72.50
50548;DHT22;38013;48.810;8.818;2022-08-20T10:37:24;22.60;72.60
50548;DHT22;38013;48.810;8.818;2022-08-20T10:39:51;22.60;72.60
50548;DHT22;38013;48.810;8.818;2022-08-20T10:42:17;22.70;73.10
50548;DHT22;38013;48.810;8.818;2022-08-20T10:44:43;22.80;72.60
50548;DHT22;38013;48.810;8.818;2022-08-20T10:47:27;22.90;72.60
50548;DHT22;38013;48.810;8.818;2022-08-20T10:50:00;23.00;71.90
50548;DHT22;38013;48.810;8.818;2022-08-20T10:52:28;23.20;72.60
50548;DHT22;38013;48.810;8.818;2022-08-20T10:54:54;23.30;71.80
50548;DHT22;38013;48.810;8.818;2022-08-20T10:57:23;23.40;72.30
50548;DHT22;38013;48.810;8.818;2022-08-20T10:59:52;23.50;71.80
50548;DHT22;38013;48.810;8.818;2022-08-20T11:02:20;23.70;71.30
50548;DHT22;38013;48.810;8.818;2022-08-20T11:04:46;23.90;70.60
50548;DHT22;38013;48.810;8.818;2022-08-20T11:07:26;24.00;69.40
50548;DHT22;38013;48.810;8.818;2022-08-20T11:09:54;24.20;69.90
50548;DHT22;38013;48.810;8.818;2022-08-20T11:12:21;24.30;69.30
50548;DHT22;38013;48.810;8.818;2022-08-20T11:14:49;24.50;69.30
50548;DHT22;38013;48.810;8.818;2022-08-20T11:17:27;24.60;68.10
50548;DHT22;38013;48.810;8.818;2022-08-20T11:19:55;24.70;66.30
50548;DHT22;38013;48.810;8.818;2022-08-20T11:22:22;24.90;66.60
50548;DHT22;38013;48.810;8.818;2022-08-20T11:24:48;25.00;66.40
50548;DHT22;38013;48.810;8.818;2022-08-20T11:27:24;25.10;65.80
50548;DHT22;38013;48.810;8.818;2022-08-20T11:29:53;25.30;64.10
50548;DHT22;38013;48.810;8.818;2022-08-20T11:32:20;25.30;63.20
50548;DHT22;38013;48.810;8.818;2022-08-20T11:34:46;25.40;62.80
50548;DHT22;38013;48.810;8.818;2022-08-20T11:37:13;25.40;62.50
50548;DHT22;38013;48.810;8.818;2022-08-20T11:39:40;25.40;61.90
50548;DHT22;38013;48.810;8.818;2022-08-20T11:42:06;25.40;62.20
50548;DHT22;38013;48.810;8.818;2022-08-20T11:44:32;25.40;61.80
50548;DHT22;38013;48.810;8.818;2022-08-20T11:47:04;25.40;62.20
50548;DHT22;38013;48.810;8.818;2022-08-20T11:49:31;25.30;61.70
50548;DHT22;38013;48.810;8.818;2022-08-20T11:51:58;25.30;62.00
50548;DHT22;38013;48.810;8.818;2022-08-20T11:54:25;25.30;62.10
50548;DHT22;38013;48.810;8.818;2022-08-20T11:56:54;25.40;61.70
50548;DHT22;38013;48.810;8.818;2022-08-20T11:59:24;25.40;61.80
50548;DHT22;38013;48.810;8.818;2022-08-20T12:01:50;25.40;61.80
50548;DHT22;38013;48.810;8.818;2022-08-20T12:04:18;25.50;62.10
50548;DHT22;38013;48.810;8.818;2022-08-20T12:06:44;25.60;62.00
50548;DHT22;38013;48.810;8.818;2022-08-20T12:09:10;25.70;61.80
50548;DHT22;38013;48.810;8.818;2022-08-20T12:11:36;25.80;61.30
50548;DHT22;38013;48.810;8.818;2022-08-20T12:14:02;25.90;60.90
50548;DHT22;38013;48.810;8.818;2022-08-20T12:16:28;26.10;60.30
50548;DHT22;38013;48.810;8.818;2022-08-20T12:18:53;26.10;59.70
50548;DHT22;38013;48.810;8.818;2022-08-20T12:21:19;26.20;59.30
50548;DHT22;38013;48.810;8.818;2022-08-20T12:23:45;26.30;59.80
50548;DHT22;38013;48.810;8.818;2022-08-20T12:26:11;26.30;59.30
50548;DHT22;38013;48.810;8.818;2022-08-20T12:28:37;26.30;58.90
50548;DHT22;38013;48.810;8.818;2022-08-20T12:31:03;26.40;58.70
50548;DHT22;38013;48.810;8.818;2022-08-20T12:33:29;26.40;58.40
50548;DHT22;38013;48.810;8.818;2022-08-20T12:35:56;26.40;58.40
50548;DHT22;38013;48.810;8.818;2022-08-20T12:38:22;26.40;57.80
50548;DHT22;38013;48.810;8.818;2022-08-20T12:40:47;26.50;58.00
50548;DHT22;38013;48.810;8.818;2022-08-20T12:43:13;26.50;57.70
50548;DHT22;38013;48.810;8.818;2022-08-20T12:45:39;26.40;57.50
50548;DHT22;38013;48.810;8.818;2022-08-20T12:48:11;26.50;57.40
50548;DHT22;38013;48.810;8.818;2022-08-20T12:50:39;26.40;56.60
50548;DHT22;38013;48.810;8.818;2022-08-20T12:53:06;26.40;57.50
50548;DHT22;38013;48.810;8.818;2022-08-20T12:55:33;26.40;57.50
50548;DHT22;38013;48.810;8.818;2022-08-20T12:58:00;26.40;57.80
50548;DHT22;38013;48.810;8.818;2022-08-20T13:00:34;26.50;57.40
50548;DHT22;38013;48.810;8.818;2022-08-20T13:03:04;26.50;57.60
50548;DHT22;38013;48.810;8.818;2022-08-20T13:05:31;26.70;57.80
50548;DHT22;38013;48.810;8.818;2022-08-20T13:07:58;26.80;57.10
50548;DHT22;38013;48.810;8.818;2022-08-20T13:10:27;26.90;56.40
50548;DHT22;38013;48.810;8.818;2022-08-20T13:12:55;27.00;56.80
50548;DHT22;38013;48.810;8.818;2022-08-20T13:15:22;27.10;55.90
50548;DHT22;38013;48.810;8.818;2022-08-20T13:17:59;27.30;55.30
50548;DHT22;38013;48.810;8.818;2022-08-20T13:20:27;27.50;53.30
50548;DHT22;38013;48.810;8.818;2022-08-20T13:22:53;27.70;54.30
50548;DHT22;38013;48.810;8.818;2022-08-20T13:25:20;27.80;53.60
50548;DHT22;38013;48.810;8.818;2022-08-20T13:27:46;28.00;52.90
50548;DHT22;38013;48.810;8.818;2022-08-20T13:30:15;28.10;53.20
50548;DHT22;38013;48.810;8.818;2022-08-20T13:32:42;28.20;51.70
50548;DHT22;38013;48.810;8.818;2022-08-20T13:35:09;28.30;52.50
50548;DHT22;38013;48.810;8.818;2022-08-20T13:37:37;28.50;51.90
50548;DHT22;38013;48.810;8.818;2022-08-20T13:40:04;28.60;51.80
50548;DHT22;38013;48.810;8.818;2022-08-20T13:42:32;28.70;51.20
50548;DHT22;38013;48.810;8.818;2022-08-20T13:44:58;28.90;49.30
50548;DHT22;38013;48.810;8.818;2022-08-20T13:47:29;29.10;49.60
50548;DHT22;38013;48.810;8.818;2022-08-20T13:50:19;29.20;48.30
50548;DHT22;38013;48.810;8.818;2022-08-20T13:52:46;29.30;46.10
50548;DHT22;38013;48.810;8.818;2022-08-20T13:55:15;29.40;48.40
50548;DHT22;38013;48.810;8.818;2022-08-20T13:57:42;29.50;47.30
50548;DHT22;38013;48.810;8.818;2022-08-20T14:00:13;29.60;47.10
50548;DHT22;38013;48.810;8.818;2022-08-20T14:02:42;29.70;46.50
50548;DHT22;38013;48.810;8.818;2022-08-20T14:05:08;29.80;46.60
50548;DHT22;38013;48.810;8.818;2022-08-20T14:07:35;29.80;45.80
50548;DHT22;38013;48.810;8.818;2022-08-20T14:10:05;29.80;45.90
50548;DHT22;38013;48.810;8.818;2022-08-20T14:12:32;29.90;45.30
50548;DHT22;38013;48.810;8.818;2022-08-20T14:14:58;29.90;45.60
50548;DHT22;38013;48.810;8.818;2022-08-20T14:17:25;29.80;45.60
50548;DHT22;38013;48.810;8.818;2022-08-20T14:19:58;29.80;45.80
50548;DHT22;38013;48.810;8.818;2022-08-20T14:22:29;29.70;44.90
50548;DHT22;38013;48.810;8.818;2022-08-20T14:24:55;29.70;43.80
50548;DHT22;38013;48.810;8.818;2022-08-20T14:27:23;29.70;44.30
50548;DHT22;38013;48.810;8.818;2022-08-20T14:29:49;29.60;44.70
50548;DHT22;38013;48.810;8.818;2022-08-20T14:32:16;29.60;44.60
50548;DHT22;38013;48.810;8.818;2022-08-20T14:34:42;29.50;44.50
50548;DHT22;38013;48.810;8.818;2022-08-20T14:39:51;29.50;44.40
50548;DHT22;38013;48.810;8.818;2022-08-20T14:42:18;29.60;44.20
50548;DHT22;38013;48.810;8.818;2022-08-20T14:44:45;29.60;44.20
50548;DHT22;38013;48.810;8.818;2022-08-20T14:47:13;29.60;43.80
50548;DHT22;38013;48.810;8.818;2022-08-20T14:49:44;29.60;44.20
50548;DHT22;38013;48.810;8.818;2022-08-20T14:52:11;29.70;43.90
50548;DHT22;38013;48.810;8.818;2022-08-20T14:54:38;29.70;43.20
50548;DHT22;38013;48.810;8.818;2022-08-20T14:57:05;29.70;43.30
50548;DHT22;38013;48.810;8.818;2022-08-20T14:59:32;29.80;44.30
50548;DHT22;38013;48.810;8.818;2022-08-20T15:01:58;29.90;44.40
50548;DHT22;38013;48.810;8.818;2022-08-20T15:04:25;30.00;44.20
50548;DHT22;38013;48.810;8.818;2022-08-20T15:06:51;30.30;44.10
50548;DHT22;38013;48.810;8.818;2022-08-20T15:09:17;30.60;43.20
50548;DHT22;38013;48.810;8.818;2022-08-20T15:11:43;30.90;42.20
50548;DHT22;38013;48.810;8.818;2022-08-20T15:14:09;31.10;41.70
50548;DHT22;38013;48.810;8.818;2022-08-20T15:16:35;31.40;41.40
50548;DHT22;38013;48.810;8.818;2022-08-20T15:19:01;31.60;41.30
50548;DHT22;38013;48.810;8.818;2022-08-20T15:21:27;31.60;40.00
50548;DHT22;38013;48.810;8.818;2022-08-20T15:23:53;31.70;40.20
50548;DHT22;38013;48.810;8.818;2022-08-20T15:26:19;31.70;40.40
50548;DHT22;38013;48.810;8.818;2022-08-20T15:28:45;31.80;39.90
50548;DHT22;38013;48.810;8.818;2022-08-20T15:31:12;31.90;39.40
50548;DHT22;38013;48.810;8.818;2022-08-20T15:33:38;32.00;38.60
50548;DHT22;38013;48.810;8.818;2022-08-20T15:36:06;32.10;38.40
50548;DHT22;38013;48.810;8.818;2022-08-20T15:38:35;32.30;38.50
50548;DHT22;38013;48.810;8.818;2022-08-20T15:41:01;32.50;38.90
50548;DHT22;38013;48.810;8.818;2022-08-20T15:43:29;32.60;38.00
50548;DHT22;38013;48.810;8.818;2022-08-20T15:45:59;32.70;37.60